sensor_id;sensor_type;location;lat;lon;timestamp;P1;durP1;ratioP1;P2;durP2;ratioP2
31798;SDS011;18374;51.136;3.502;2023-04-24T00:01:45;11.02;;;6.78;;
31798;SDS011;18374;51.136;3.502;2023-04-24T00:04:13;12.80;;;6.78;;
31798;SDS011;18374;51.136;3.502;2023-04-24T00:06:44;14.15;;;6.18;;
31798;SDS011;18374;51.136;3.502;2023-04-24T00:09:16;13.30;;;6.40;;
31798;SDS011;18374;51.136;3.502;2023-04-24T00:11:44;12.18;;;5.80;;
31798;SDS011;18374;51.136;3.502;2023-04-24T00:14:11;11.05;;;5.32;;
31798;SDS011;18374;51.136;3.502;2023-04-24T00:16:39;7.65;;;5.43;;
31798;SDS011;18374;51.136;3.502;2023-04-24T00:19:07;9.45;;;5.13;;
31798;SDS011;18374;51.136;3.502;2023-04-24T00:21:35;10.50;;;5.95;;
31798;SDS011;18374;51.136;3.502;2023-04-24T00:24:03;17.85;;;6.65;;
31798;SDS011;18374;51.136;3.502;2023-04-24T00:26:31;10.95;;;6.97;;
31798;SDS011;18374;51.136;3.502;2023-04-24T00:28:59;14.55;;;9.27;;
31798;SDS011;18374;51.136;3.502;2023-04-24T00:31:26;16.38;;;9.38;;
31798;SDS011;18374;51.136;3.502;2023-04-24T00:33:54;23.60;;;10.18;;
31798;SDS011;18374;51.136;3.502;2023-04-24T00:36:22;15.05;;;10.07;;
31798;SDS011;18374;51.136;3.502;2023-04-24T00:38:50;19.00;;;10.32;;
31798;SDS011;18374;51.136;3.502;2023-04-24T00:41:18;15.88;;;10.43;;
31798;SDS011;18374;51.136;3.502;2023-04-24T00:43:46;14.70;;;10.00;;
31798;SDS011;18374;51.136;3.502;2023-04-24T00:46:14;15.43;;;9.93;;
31798;SDS011;18374;51.136;3.502;2023-04-24T00:48:42;21.25;;;10.27;;
31798;SDS011;18374;51.136;3.502;2023-04-24T00:51:11;18.33;;;9.90;;
31798;SDS011;18374;51.136;3.502;2023-04-24T00:53:39;17.90;;;10.18;;
31798;SDS011;18374;51.136;3.502;2023-04-24T00:56:07;15.10;;;9.25;;
31798;SDS011;18374;51.136;3.502;2023-04-24T00:58:35;17.15;;;9.88;;
31798;SDS011;18374;51.136;3.502;2023-04-24T01:01:03;19.65;;;10.80;;
31798;SDS011;18374;51.136;3.502;2023-04-24T01:03:34;16.50;;;10.48;;
31798;SDS011;18374;51.136;3.502;2023-04-24T01:06:04;21.67;;;12.45;;
31798;SDS011;18374;51.136;3.502;2023-04-24T01:08:32;24.25;;;12.48;;
31798;SDS011;18374;51.136;3.502;2023-04-24T01:11:03;26.48;;;14.27;;
31798;SDS011;18374;51.136;3.502;2023-04-24T01:13:32;26.95;;;14.57;;
31798;SDS011;18374;51.136;3.502;2023-04-24T01:16:00;26.30;;;16.38;;
31798;SDS011;18374;51.136;3.502;2023-04-24T01:18:28;32.05;;;17.38;;
31798;SDS011;18374;51.136;3.502;2023-04-24T01:20:57;30.48;;;16.98;;
31798;SDS011;18374;51.136;3.502;2023-04-24T01:23:26;34.83;;;19.00;;
31798;SDS011;18374;51.136;3.502;2023-04-24T01:25:54;33.67;;;19.60;;
31798;SDS011;18374;51.136;3.502;2023-04-24T01:28:25;42.75;;;20.08;;
31798;SDS011;18374;51.136;3.502;2023-04-24T01:30:53;37.60;;;21.67;;
31798;SDS011;18374;51.136;3.502;2023-04-24T01:33:23;41.70;;;22.25;;
31798;SDS011;18374;51.136;3.502;2023-04-24T01:35:51;41.25;;;22.52;;
31798;SDS011;18374;51.136;3.502;2023-04-24T01:38:19;40.50;;;23.17;;
31798;SDS011;18374;51.136;3.502;2023-04-24T01:40:47;39.63;;;23.38;;
31798;SDS011;18374;51.136;3.502;2023-04-24T01:43:15;43.05;;;23.73;;
31798;SDS011;18374;51.136;3.502;2023-04-24T01:45:42;41.30;;;21.75;;
31798;SDS011;18374;51.136;3.502;2023-04-24T01:48:11;46.05;;;23.73;;
31798;SDS011;18374;51.136;3.502;2023-04-24T01:50:40;35.78;;;21.05;;
31798;SDS011;18374;51.136;3.502;2023-04-24T01:53:11;42.33;;;22.13;;
31798;SDS011;18374;51.136;3.502;2023-04-24T01:55:39;40.42;;;23.00;;
31798;SDS011;18374;51.136;3.502;2023-04-24T01:58:08;45.35;;;22.50;;
31798;SDS011;18374;51.136;3.502;2023-04-24T02:00:36;35.95;;;19.48;;
31798;SDS011;18374;51.136;3.502;2023-04-24T02:03:04;39.45;;;20.52;;
31798;SDS011;18374;51.136;3.502;2023-04-24T02:05:32;39.05;;;15.85;;
31798;SDS011;18374;51.136;3.502;2023-04-24T02:08:02;23.27;;;10.05;;
31798;SDS011;18374;51.136;3.502;2023-04-24T02:10:30;21.98;;;9.27;;
31798;SDS011;18374;51.136;3.502;2023-04-24T02:12:58;18.67;;;9.93;;
31798;SDS011;18374;51.136;3.502;2023-04-24T02:15:26;24.20;;;9.25;;
31798;SDS011;18374;51.136;3.502;2023-04-24T02:17:55;13.85;;;7.55;;
31798;SDS011;18374;51.136;3.502;2023-04-24T02:20:23;16.17;;;5.93;;
31798;SDS011;18374;51.136;3.502;2023-04-24T02:22:52;13.20;;;5.25;;
31798;SDS011;18374;51.136;3.502;2023-04-24T02:25:20;14.68;;;5.03;;
31798;SDS011;18374;51.136;3.502;2023-04-24T02:27:48;13.35;;;4.72;;
31798;SDS011;18374;51.136;3.502;2023-04-24T02:30:16;14.23;;;4.85;;
31798;SDS011;18374;51.136;3.502;2023-04-24T02:32:44;11.20;;;5.22;;
31798;SDS011;18374;51.136;3.502;2023-04-24T02:35:12;14.73;;;5.13;;
31798;SDS011;18374;51.136;3.502;2023-04-24T02:37:40;13.20;;;6.70;;
31798;SDS011;18374;51.136;3.502;2023-04-24T02:40:11;17.48;;;6.30;;
31798;SDS011;18374;51.136;3.502;2023-04-24T02:42:39;14.20;;;6.70;;
31798;SDS011;18374;51.136;3.502;2023-04-24T02:45:07;17.85;;;6.65;;
31798;SDS011;18374;51.136;3.502;2023-04-24T02:47:35;15.15;;;7.18;;
31798;SDS011;18374;51.136;3.502;2023-04-24T02:50:03;15.98;;;7.63;;
31798;SDS011;18374;51.136;3.502;2023-04-24T02:52:32;24.70;;;7.82;;
31798;SDS011;18374;51.136;3.502;2023-04-24T02:55:00;23.40;;;8.52;;
31798;SDS011;18374;51.136;3.502;2023-04-24T02:57:28;21.83;;;9.60;;
31798;SDS011;18374;51.136;3.502;2023-04-24T02:59:56;13.90;;;8.57;;
31798;SDS011;18374;51.136;3.502;2023-04-24T03:02:23;26.23;;;10.20;;
31798;SDS011;18374;51.136;3.502;2023-04-24T03:04:52;22.17;;;10.13;;
31798;SDS011;18374;51.136;3.502;2023-04-24T03:07:20;24.25;;;10.50;;
31798;SDS011;18374;51.136;3.502;2023-04-24T03:09:48;30.13;;;11.45;;
31798;SDS011;18374;51.136;3.502;2023-04-24T03:12:15;25.17;;;13.05;;
31798;SDS011;18374;51.136;3.502;2023-04-24T03:14:44;26.38;;;13.60;;
31798;SDS011;18374;51.136;3.502;2023-04-24T03:17:12;25.42;;;13.32;;
31798;SDS011;18374;51.136;3.502;2023-04-24T03:19:40;33.08;;;13.23;;
31798;SDS011;18374;51.136;3.502;2023-04-24T03:22:10;27.60;;;13.32;;
31798;SDS011;18374;51.136;3.502;2023-04-24T03:24:40;32.53;;;14.13;;
31798;SDS011;18374;51.136;3.502;2023-04-24T03:27:08;27.48;;;13.52;;
31798;SDS011;18374;51.136;3.502;2023-04-24T03:29:54;30.45;;;14.20;;
31798;SDS011;18374;51.136;3.502;2023-04-24T03:32:40;28.73;;;14.25;;
31798;SDS011;18374;51.136;3.502;2023-04-24T03:35:11;37.05;;;14.75;;
31798;SDS011;18374;51.136;3.502;2023-04-24T03:37:39;42.33;;;13.93;;
31798;SDS011;18374;51.136;3.502;2023-04-24T03:40:33;42.88;;;14.50;;
31798;SDS011;18374;51.136;3.502;2023-04-24T03:43:05;31.67;;;13.93;;
31798;SDS011;18374;51.136;3.502;2023-04-24T03:45:33;32.80;;;14.05;;
31798;SDS011;18374;51.136;3.502;2023-04-24T03:48:01;30.55;;;13.65;;
31798;SDS011;18374;51.136;3.502;2023-04-24T03:50:29;33.15;;;14.73;;
31798;SDS011;18374;51.136;3.502;2023-04-24T03:52:58;24.27;;;13.25;;
31798;SDS011;18374;51.136;3.502;2023-04-24T03:55:38;32.55;;;14.32;;
31798;SDS011;18374;51.136;3.502;2023-04-24T03:58:06;27.95;;;13.73;;
31798;SDS011;18374;51.136;3.502;2023-04-24T04:00:34;34.55;;;14.68;;
31798;SDS011;18374;51.136;3.502;2023-04-24T04:03:42;32.38;;;14.45;;
31798;SDS011;18374;51.136;3.502;2023-04-24T04:06:11;37.83;;;14.35;;
31798;SDS011;18374;51.136;3.502;2023-04-24T04:08:40;26.20;;;14.10;;
31798;SDS011;18374;51.136;3.502;2023-04-24T04:11:09;25.77;;;13.88;;
31798;SDS011;18374;51.136;3.502;2023-04-24T04:13:36;30.88;;;14.88;;
31798;SDS011;18374;51.136;3.502;2023-04-24T04:16:04;31.15;;;13.40;;
31798;SDS011;18374;51.136;3.502;2023-04-24T04:18:32;26.38;;;12.50;;
31798;SDS011;18374;51.136;3.502;2023-04-24T04:21:01;28.05;;;13.30;;
31798;SDS011;18374;51.136;3.502;2023-04-24T04:23:29;23.08;;;12.85;;
31798;SDS011;18374;51.136;3.502;2023-04-24T04:26:12;27.90;;;12.90;;
31798;SDS011;18374;51.136;3.502;2023-04-24T04:28:59;28.65;;;13.43;;
31798;SDS011;18374;51.136;3.502;2023-04-24T04:31:32;27.20;;;13.38;;
31798;SDS011;18374;51.136;3.502;2023-04-24T04:34:04;31.58;;;14.75;;
31798;SDS011;18374;51.136;3.502;2023-04-24T04:36:33;32.28;;;13.85;;
31798;SDS011;18374;51.136;3.502;2023-04-24T04:39:18;31.42;;;15.38;;
31798;SDS011;18374;51.136;3.502;2023-04-24T04:41:59;30.95;;;14.27;;
31798;SDS011;18374;51.136;3.502;2023-04-24T04:44:35;36.97;;;16.50;;
31798;SDS011;18374;51.136;3.502;2023-04-24T04:47:05;36.75;;;15.30;;
31798;SDS011;18374;51.136;3.502;2023-04-24T04:49:35;28.90;;;14.57;;
31798;SDS011;18374;51.136;3.502;2023-04-24T04:52:10;35.17;;;16.47;;
31798;SDS011;18374;51.136;3.502;2023-04-24T04:54:38;36.53;;;16.60;;
31798;SDS011;18374;51.136;3.502;2023-04-24T04:57:06;36.28;;;16.50;;
31798;SDS011;18374;51.136;3.502;2023-04-24T04:59:35;36.10;;;16.73;;
31798;SDS011;18374;51.136;3.502;2023-04-24T05:02:08;35.15;;;14.93;;
31798;SDS011;18374;51.136;3.502;2023-04-24T05:04:37;38.10;;;16.85;;
31798;SDS011;18374;51.136;3.502;2023-04-24T05:07:05;39.95;;;17.25;;
31798;SDS011;18374;51.136;3.502;2023-04-24T05:09:37;37.05;;;16.33;;
31798;SDS011;18374;51.136;3.502;2023-04-24T05:12:06;40.30;;;17.42;;
31798;SDS011;18374;51.136;3.502;2023-04-24T05:14:41;35.47;;;18.20;;
31798;SDS011;18374;51.136;3.502;2023-04-24T05:17:11;39.45;;;17.60;;
31798;SDS011;18374;51.136;3.502;2023-04-24T05:19:40;37.08;;;17.17;;
31798;SDS011;18374;51.136;3.502;2023-04-24T05:22:08;44.30;;;18.80;;
31798;SDS011;18374;51.136;3.502;2023-04-24T05:24:47;47.20;;;18.95;;
31798;SDS011;18374;51.136;3.502;2023-04-24T05:27:32;44.30;;;18.50;;
31798;SDS011;18374;51.136;3.502;2023-04-24T05:30:02;45.28;;;17.98;;
31798;SDS011;18374;51.136;3.502;2023-04-24T05:32:31;39.15;;;18.65;;
31798;SDS011;18374;51.136;3.502;2023-04-24T05:34:59;56.90;;;19.33;;
31798;SDS011;18374;51.136;3.502;2023-04-24T05:37:27;42.83;;;18.63;;
31798;SDS011;18374;51.136;3.502;2023-04-24T05:39:55;39.17;;;17.83;;
31798;SDS011;18374;51.136;3.502;2023-04-24T05:42:23;39.53;;;17.52;;
31798;SDS011;18374;51.136;3.502;2023-04-24T05:44:50;43.45;;;19.23;;
31798;SDS011;18374;51.136;3.502;2023-04-24T05:47:20;33.90;;;17.17;;
31798;SDS011;18374;51.136;3.502;2023-04-24T05:49:50;43.03;;;18.13;;
31798;SDS011;18374;51.136;3.502;2023-04-24T05:52:17;40.88;;;18.15;;
31798;SDS011;18374;51.136;3.502;2023-04-24T05:54:46;35.95;;;17.55;;
31798;SDS011;18374;51.136;3.502;2023-04-24T05:57:19;41.42;;;17.42;;
31798;SDS011;18374;51.136;3.502;2023-04-24T06:00:01;36.45;;;16.45;;
31798;SDS011;18374;51.136;3.502;2023-04-24T06:02:39;48.30;;;18.08;;
31798;SDS011;18374;51.136;3.502;2023-04-24T06:05:10;37.72;;;15.25;;
31798;SDS011;18374;51.136;3.502;2023-04-24T06:07:38;31.15;;;16.05;;
31798;SDS011;18374;51.136;3.502;2023-04-24T06:10:08;33.15;;;13.77;;
31798;SDS011;18374;51.136;3.502;2023-04-24T06:12:41;38.13;;;15.35;;
31798;SDS011;18374;51.136;3.502;2023-04-24T06:15:14;31.35;;;12.70;;
31798;SDS011;18374;51.136;3.502;2023-04-24T06:18:06;33.10;;;12.68;;
31798;SDS011;18374;51.136;3.502;2023-04-24T06:20:35;27.77;;;11.40;;
31798;SDS011;18374;51.136;3.502;2023-04-24T06:23:03;30.55;;;12.68;;
31798;SDS011;18374;51.136;3.502;2023-04-24T06:25:32;32.97;;;12.07;;
31798;SDS011;18374;51.136;3.502;2023-04-24T06:28:01;35.10;;;11.27;;
31798;SDS011;18374;51.136;3.502;2023-04-24T06:30:30;25.52;;;11.40;;
31798;SDS011;18374;51.136;3.502;2023-04-24T06:32:58;30.23;;;11.65;;
31798;SDS011;18374;51.136;3.502;2023-04-24T06:35:45;26.10;;;11.65;;
31798;SDS011;18374;51.136;3.502;2023-04-24T06:38:13;66.85;;;13.77;;
31798;SDS011;18374;51.136;3.502;2023-04-24T06:40:40;24.70;;;11.07;;
31798;SDS011;18374;51.136;3.502;2023-04-24T06:43:11;28.42;;;10.25;;
31798;SDS011;18374;51.136;3.502;2023-04-24T06:45:39;29.63;;;9.00;;
31798;SDS011;18374;51.136;3.502;2023-04-24T06:48:07;21.17;;;7.95;;
31798;SDS011;18374;51.136;3.502;2023-04-24T06:50:34;21.45;;;7.13;;
31798;SDS011;18374;51.136;3.502;2023-04-24T06:53:02;19.83;;;7.07;;
31798;SDS011;18374;51.136;3.502;2023-04-24T06:55:30;20.10;;;6.93;;
31798;SDS011;18374;51.136;3.502;2023-04-24T06:57:57;18.73;;;7.43;;
31798;SDS011;18374;51.136;3.502;2023-04-24T07:00:26;26.85;;;6.65;;
31798;SDS011;18374;51.136;3.502;2023-04-24T07:02:53;17.15;;;5.95;;
31798;SDS011;18374;51.136;3.502;2023-04-24T07:05:21;14.48;;;5.30;;
31798;SDS011;18374;51.136;3.502;2023-04-24T07:07:50;22.63;;;6.28;;
31798;SDS011;18374;51.136;3.502;2023-04-24T07:10:18;15.73;;;5.00;;
31798;SDS011;18374;51.136;3.502;2023-04-24T07:12:47;16.27;;;5.65;;
31798;SDS011;18374;51.136;3.502;2023-04-24T07:15:14;16.95;;;4.65;;
31798;SDS011;18374;51.136;3.502;2023-04-24T07:17:43;15.32;;;5.82;;
31798;SDS011;18374;51.136;3.502;2023-04-24T07:20:11;17.25;;;5.43;;
31798;SDS011;18374;51.136;3.502;2023-04-24T07:22:39;14.10;;;4.30;;
31798;SDS011;18374;51.136;3.502;2023-04-24T07:25:06;16.98;;;5.07;;
31798;SDS011;18374;51.136;3.502;2023-04-24T07:27:35;16.25;;;6.03;;
31798;SDS011;18374;51.136;3.502;2023-04-24T07:30:04;21.30;;;5.82;;
31798;SDS011;18374;51.136;3.502;2023-04-24T07:32:34;18.65;;;6.40;;
31798;SDS011;18374;51.136;3.502;2023-04-24T07:35:02;34.90;;;8.15;;
31798;SDS011;18374;51.136;3.502;2023-04-24T07:37:30;21.25;;;6.07;;
31798;SDS011;18374;51.136;3.502;2023-04-24T07:39:57;23.08;;;5.93;;
31798;SDS011;18374;51.136;3.502;2023-04-24T07:42:25;24.52;;;6.22;;
31798;SDS011;18374;51.136;3.502;2023-04-24T07:44:53;19.58;;;6.40;;
31798;SDS011;18374;51.136;3.502;2023-04-24T07:47:21;14.73;;;5.65;;
31798;SDS011;18374;51.136;3.502;2023-04-24T07:49:49;16.17;;;5.70;;
31798;SDS011;18374;51.136;3.502;2023-04-24T07:52:17;22.48;;;5.88;;
31798;SDS011;18374;51.136;3.502;2023-04-24T07:54:44;14.35;;;4.75;;
31798;SDS011;18374;51.136;3.502;2023-04-24T07:57:12;14.15;;;3.85;;
31798;SDS011;18374;51.136;3.502;2023-04-24T07:59:40;16.63;;;4.82;;
31798;SDS011;18374;51.136;3.502;2023-04-24T08:02:09;14.98;;;4.30;;
31798;SDS011;18374;51.136;3.502;2023-04-24T08:04:37;13.63;;;4.65;;
31798;SDS011;18374;51.136;3.502;2023-04-24T08:07:05;14.90;;;4.07;;
31798;SDS011;18374;51.136;3.502;2023-04-24T08:09:32;14.27;;;3.78;;
31798;SDS011;18374;51.136;3.502;2023-04-24T08:12:00;12.00;;;4.18;;
31798;SDS011;18374;51.136;3.502;2023-04-24T08:14:29;11.50;;;4.28;;
31798;SDS011;18374;51.136;3.502;2023-04-24T08:16:57;12.15;;;3.63;;
31798;SDS011;18374;51.136;3.502;2023-04-24T08:19:27;12.13;;;3.72;;
31798;SDS011;18374;51.136;3.502;2023-04-24T08:21:54;10.35;;;3.50;;
31798;SDS011;18374;51.136;3.502;2023-04-24T08:24:22;12.40;;;3.78;;
31798;SDS011;18374;51.136;3.502;2023-04-24T08:26:50;13.45;;;4.03;;
31798;SDS011;18374;51.136;3.502;2023-04-24T08:29:19;8.52;;;4.07;;
31798;SDS011;18374;51.136;3.502;2023-04-24T08:31:47;16.58;;;3.95;;
31798;SDS011;18374;51.136;3.502;2023-04-24T08:34:14;13.07;;;4.65;;
31798;SDS011;18374;51.136;3.502;2023-04-24T08:36:42;11.68;;;4.30;;
31798;SDS011;18374;51.136;3.502;2023-04-24T08:39:14;8.07;;;3.63;;
31798;SDS011;18374;51.136;3.502;2023-04-24T08:41:43;12.18;;;3.72;;
31798;SDS011;18374;51.136;3.502;2023-04-24T08:44:12;12.27;;;4.82;;
31798;SDS011;18374;51.136;3.502;2023-04-24T08:46:43;11.85;;;4.38;;
31798;SDS011;18374;51.136;3.502;2023-04-24T08:49:13;10.15;;;4.72;;
31798;SDS011;18374;51.136;3.502;2023-04-24T08:51:44;18.23;;;5.20;;
31798;SDS011;18374;51.136;3.502;2023-04-24T08:54:14;9.98;;;3.97;;
31798;SDS011;18374;51.136;3.502;2023-04-24T08:56:43;11.45;;;4.03;;
31798;SDS011;18374;51.136;3.502;2023-04-24T08:59:12;14.55;;;3.95;;
31798;SDS011;18374;51.136;3.502;2023-04-24T09:01:40;13.68;;;4.75;;
31798;SDS011;18374;51.136;3.502;2023-04-24T09:04:09;17.05;;;4.28;;
31798;SDS011;18374;51.136;3.502;2023-04-24T09:06:38;9.70;;;3.67;;
31798;SDS011;18374;51.136;3.502;2023-04-24T09:09:06;7.57;;;3.95;;
31798;SDS011;18374;51.136;3.502;2023-04-24T09:11:35;10.82;;;4.22;;
31798;SDS011;18374;51.136;3.502;2023-04-24T09:14:04;6.40;;;3.40;;
31798;SDS011;18374;51.136;3.502;2023-04-24T09:16:32;10.13;;;3.30;;
31798;SDS011;18374;51.136;3.502;2023-04-24T09:19:02;4.80;;;3.20;;
31798;SDS011;18374;51.136;3.502;2023-04-24T09:21:34;13.13;;;3.53;;
31798;SDS011;18374;51.136;3.502;2023-04-24T09:24:06;9.38;;;3.40;;
31798;SDS011;18374;51.136;3.502;2023-04-24T09:26:44;10.15;;;3.60;;
31798;SDS011;18374;51.136;3.502;2023-04-24T09:29:16;15.65;;;3.83;;
31798;SDS011;18374;51.136;3.502;2023-04-24T09:31:45;11.57;;;3.60;;
31798;SDS011;18374;51.136;3.502;2023-04-24T09:34:13;8.07;;;3.53;;
31798;SDS011;18374;51.136;3.502;2023-04-24T09:36:42;10.25;;;3.90;;
31798;SDS011;18374;51.136;3.502;2023-04-24T09:39:15;9.10;;;3.35;;
31798;SDS011;18374;51.136;3.502;2023-04-24T09:44:14;10.95;;;3.50;;
31798;SDS011;18374;51.136;3.502;2023-04-24T09:46:51;8.20;;;3.53;;
31798;SDS011;18374;51.136;3.502;2023-04-24T09:49:29;12.30;;;3.40;;
31798;SDS011;18374;51.136;3.502;2023-04-24T09:52:04;9.05;;;3.72;;
31798;SDS011;18374;51.136;3.502;2023-04-24T09:54:34;10.25;;;3.70;;
31798;SDS011;18374;51.136;3.502;2023-04-24T09:57:03;11.23;;;3.33;;
31798;SDS011;18374;51.136;3.502;2023-04-24T09:59:32;9.32;;;3.90;;
31798;SDS011;18374;51.136;3.502;2023-04-24T10:02:03;7.88;;;3.47;;
31798;SDS011;18374;51.136;3.502;2023-04-24T10:04:55;8.80;;;3.90;;
31798;SDS011;18374;51.136;3.502;2023-04-24T10:07:26;8.30;;;3.42;;
31798;SDS011;18374;51.136;3.502;2023-04-24T10:09:54;11.23;;;3.40;;
31798;SDS011;18374;51.136;3.502;2023-04-24T10:12:22;10.77;;;3.00;;
31798;SDS011;18374;51.136;3.502;2023-04-24T10:14:52;8.48;;;3.17;;
31798;SDS011;18374;51.136;3.502;2023-04-24T10:17:20;8.65;;;2.70;;
31798;SDS011;18374;51.136;3.502;2023-04-24T10:19:49;7.10;;;3.08;;
31798;SDS011;18374;51.136;3.502;2023-04-24T10:22:17;6.60;;;3.03;;
31798;SDS011;18374;51.136;3.502;2023-04-24T10:24:45;8.43;;;2.97;;
31798;SDS011;18374;51.136;3.502;2023-04-24T10:27:15;8.43;;;3.00;;
31798;SDS011;18374;51.136;3.502;2023-04-24T10:29:44;6.15;;;2.88;;
31798;SDS011;18374;51.136;3.502;2023-04-24T10:32:14;8.57;;;2.95;;
31798;SDS011;18374;51.136;3.502;2023-04-24T10:34:42;6.63;;;3.05;;
31798;SDS011;18374;51.136;3.502;2023-04-24T10:37:10;3.50;;;2.22;;
31798;SDS011;18374;51.136;3.502;2023-04-24T10:39:40;5.18;;;2.60;;
31798;SDS011;18374;51.136;3.502;2023-04-24T10:42:16;11.07;;;3.00;;
31798;SDS011;18374;51.136;3.502;2023-04-24T10:44:44;6.00;;;2.72;;
31798;SDS011;18374;51.136;3.502;2023-04-24T10:47:16;5.57;;;2.58;;
31798;SDS011;18374;51.136;3.502;2023-04-24T10:49:44;5.07;;;2.13;;
31798;SDS011;18374;51.136;3.502;2023-04-24T10:52:12;5.90;;;2.35;;
31798;SDS011;18374;51.136;3.502;2023-04-24T10:54:42;7.40;;;2.55;;
31798;SDS011;18374;51.136;3.502;2023-04-24T11:02:41;8.57;;;2.88;;
31798;SDS011;18374;51.136;3.502;2023-04-24T11:05:16;7.68;;;2.65;;
31798;SDS011;18374;51.136;3.502;2023-04-24T11:10:44;14.13;;;2.72;;
31798;SDS011;18374;51.136;3.502;2023-04-24T11:13:25;7.43;;;2.45;;
31798;SDS011;18374;51.136;3.502;2023-04-24T11:16:14;9.43;;;2.72;;
31798;SDS011;18374;51.136;3.502;2023-04-24T11:18:51;7.30;;;2.22;;
31798;SDS011;18374;51.136;3.502;2023-04-24T11:27:20;6.47;;;2.22;;
31798;SDS011;18374;51.136;3.502;2023-04-24T11:29:58;8.32;;;2.00;;
31798;SDS011;18374;51.136;3.502;2023-04-24T11:32:34;4.50;;;2.10;;
31798;SDS011;18374;51.136;3.502;2023-04-24T11:37:48;6.38;;;1.67;;
31798;SDS011;18374;51.136;3.502;2023-04-24T11:40:38;8.38;;;1.73;;
31798;SDS011;18374;51.136;3.502;2023-04-24T11:43:07;5.45;;;1.77;;
31798;SDS011;18374;51.136;3.502;2023-04-24T11:45:36;3.72;;;1.48;;
31798;SDS011;18374;51.136;3.502;2023-04-24T11:48:04;4.95;;;1.40;;
31798;SDS011;18374;51.136;3.502;2023-04-24T11:50:32;5.38;;;1.55;;
31798;SDS011;18374;51.136;3.502;2023-04-24T11:53:01;3.53;;;1.65;;
31798;SDS011;18374;51.136;3.502;2023-04-24T11:55:31;2.38;;;1.40;;
31798;SDS011;18374;51.136;3.502;2023-04-24T11:57:59;2.47;;;1.27;;
31798;SDS011;18374;51.136;3.502;2023-04-24T12:00:28;5.25;;;1.52;;
31798;SDS011;18374;51.136;3.502;2023-04-24T12:03:05;4.72;;;1.23;;
31798;SDS011;18374;51.136;3.502;2023-04-24T12:05:39;3.88;;;1.45;;
31798;SDS011;18374;51.136;3.502;2023-04-24T12:08:08;4.65;;;1.73;;
31798;SDS011;18374;51.136;3.502;2023-04-24T12:10:35;5.43;;;1.48;;
31798;SDS011;18374;51.136;3.502;2023-04-24T12:13:04;5.63;;;1.40;;
31798;SDS011;18374;51.136;3.502;2023-04-24T12:15:32;4.70;;;1.40;;
31798;SDS011;18374;51.136;3.502;2023-04-24T12:18:00;6.25;;;1.60;;
31798;SDS011;18374;51.136;3.502;2023-04-24T12:20:29;7.00;;;1.70;;
31798;SDS011;18374;51.136;3.502;2023-04-24T12:22:59;3.42;;;1.23;;
31798;SDS011;18374;51.136;3.502;2023-04-24T12:25:31;6.45;;;1.65;;
31798;SDS011;18374;51.136;3.502;2023-04-24T12:30:32;4.82;;;1.45;;
31798;SDS011;18374;51.136;3.502;2023-04-24T12:33:07;1.85;;;1.10;;
31798;SDS011;18374;51.136;3.502;2023-04-24T12:35:35;4.28;;;1.02;;
31798;SDS011;18374;51.136;3.502;2023-04-24T12:38:06;3.10;;;1.40;;
31798;SDS011;18374;51.136;3.502;2023-04-24T12:40:35;4.45;;;1.05;;
31798;SDS011;18374;51.136;3.502;2023-04-24T12:43:12;2.95;;;0.80;;
31798;SDS011;18374;51.136;3.502;2023-04-24T12:45:45;1.35;;;0.93;;
31798;SDS011;18374;51.136;3.502;2023-04-24T12:48:14;3.50;;;0.85;;
31798;SDS011;18374;51.136;3.502;2023-04-24T12:50:43;4.07;;;1.40;;
31798;SDS011;18374;51.136;3.502;2023-04-24T12:53:13;2.35;;;1.02;;
31798;SDS011;18374;51.136;3.502;2023-04-24T12:55:42;2.92;;;1.00;;
31798;SDS011;18374;51.136;3.502;2023-04-24T12:58:11;3.83;;;1.00;;
31798;SDS011;18374;51.136;3.502;2023-04-24T13:00:40;3.72;;;0.80;;
31798;SDS011;18374;51.136;3.502;2023-04-24T13:03:10;4.90;;;1.42;;
31798;SDS011;18374;51.136;3.502;2023-04-24T13:05:39;7.00;;;1.60;;
31798;SDS011;18374;51.136;3.502;2023-04-24T13:08:07;2.58;;;1.08;;
31798;SDS011;18374;51.136;3.502;2023-04-24T13:10:35;2.70;;;1.17;;
31798;SDS011;18374;51.136;3.502;2023-04-24T13:13:03;5.40;;;1.20;;
31798;SDS011;18374;51.136;3.502;2023-04-24T13:15:31;3.08;;;0.85;;
31798;SDS011;18374;51.136;3.502;2023-04-24T13:18:01;5.00;;;0.95;;
31798;SDS011;18374;51.136;3.502;2023-04-24T13:20:29;4.20;;;0.80;;
31798;SDS011;18374;51.136;3.502;2023-04-24T13:22:57;2.67;;;1.23;;
31798;SDS011;18374;51.136;3.502;2023-04-24T13:25:24;1.83;;;0.82;;
31798;SDS011;18374;51.136;3.502;2023-04-24T13:27:53;3.25;;;0.85;;
31798;SDS011;18374;51.136;3.502;2023-04-24T13:30:21;3.72;;;0.70;;
31798;SDS011;18374;51.136;3.502;2023-04-24T13:32:48;1.77;;;0.88;;
31798;SDS011;18374;51.136;3.502;2023-04-24T13:35:16;7.22;;;1.10;;
31798;SDS011;18374;51.136;3.502;2023-04-24T13:37:44;1.83;;;1.02;;
31798;SDS011;18374;51.136;3.502;2023-04-24T13:40:12;2.83;;;1.00;;
31798;SDS011;18374;51.136;3.502;2023-04-24T13:42:39;3.58;;;1.02;;
31798;SDS011;18374;51.136;3.502;2023-04-24T13:45:07;1.48;;;0.90;;
31798;SDS011;18374;51.136;3.502;2023-04-24T13:47:51;3.00;;;0.60;;
31798;SDS011;18374;51.136;3.502;2023-04-24T13:50:21;4.70;;;0.98;;
31798;SDS011;18374;51.136;3.502;2023-04-24T13:52:49;1.33;;;0.77;;
31798;SDS011;18374;51.136;3.502;2023-04-24T13:55:17;1.17;;;0.63;;
31798;SDS011;18374;51.136;3.502;2023-04-24T13:57:45;3.55;;;0.80;;
31798;SDS011;18374;51.136;3.502;2023-04-24T14:00:12;3.00;;;1.00;;
31798;SDS011;18374;51.136;3.502;2023-04-24T14:02:41;3.00;;;1.30;;
31798;SDS011;18374;51.136;3.502;2023-04-24T14:05:09;2.85;;;0.93;;
31798;SDS011;18374;51.136;3.502;2023-04-24T14:07:38;5.63;;;1.20;;
31798;SDS011;18374;51.136;3.502;2023-04-24T14:10:06;3.13;;;1.33;;
31798;SDS011;18374;51.136;3.502;2023-04-24T14:12:34;9.07;;;1.30;;
31798;SDS011;18374;51.136;3.502;2023-04-24T14:15:03;2.78;;;1.27;;
31798;SDS011;18374;51.136;3.502;2023-04-24T14:17:32;2.53;;;1.20;;
31798;SDS011;18374;51.136;3.502;2023-04-24T14:19:59;3.33;;;1.30;;
31798;SDS011;18374;51.136;3.502;2023-04-24T14:22:27;5.47;;;1.70;;
31798;SDS011;18374;51.136;3.502;2023-04-24T14:24:55;3.42;;;1.27;;
31798;SDS011;18374;51.136;3.502;2023-04-24T14:27:24;4.15;;;1.25;;
31798;SDS011;18374;51.136;3.502;2023-04-24T14:29:52;2.05;;;1.20;;
31798;SDS011;18374;51.136;3.502;2023-04-24T14:32:20;2.60;;;1.00;;
31798;SDS011;18374;51.136;3.502;2023-04-24T14:34:48;2.40;;;1.02;;
31798;SDS011;18374;51.136;3.502;2023-04-24T14:37:16;1.77;;;0.80;;
31798;SDS011;18374;51.136;3.502;2023-04-24T14:39:44;4.30;;;1.23;;
31798;SDS011;18374;51.136;3.502;2023-04-24T14:45:01;3.00;;;1.10;;
31798;SDS011;18374;51.136;3.502;2023-04-24T14:47:29;3.20;;;1.52;;
31798;SDS011;18374;51.136;3.502;2023-04-24T14:49:58;1.55;;;1.30;;
31798;SDS011;18374;51.136;3.502;2023-04-24T14:52:25;5.20;;;1.80;;
31798;SDS011;18374;51.136;3.502;2023-04-24T14:54:53;2.20;;;1.52;;
31798;SDS011;18374;51.136;3.502;2023-04-24T14:57:22;3.67;;;1.45;;
31798;SDS011;18374;51.136;3.502;2023-04-24T14:59:50;2.88;;;1.40;;
31798;SDS011;18374;51.136;3.502;2023-04-24T15:02:42;6.10;;;1.38;;
31798;SDS011;18374;51.136;3.502;2023-04-24T15:05:12;3.78;;;1.48;;
31798;SDS011;18374;51.136;3.502;2023-04-24T15:07:40;3.20;;;1.65;;
31798;SDS011;18374;51.136;3.502;2023-04-24T15:10:08;2.92;;;1.15;;
31798;SDS011;18374;51.136;3.502;2023-04-24T15:12:37;5.63;;;1.50;;
31798;SDS011;18374;51.136;3.502;2023-04-24T15:15:05;1.80;;;1.23;;
31798;SDS011;18374;51.136;3.502;2023-04-24T15:17:34;6.72;;;1.58;;